createdAt,value
2019-03-21T00:01:04.304Z,18.27
2019-03-21T00:03:45.932Z,21.20
2019-03-21T00:06:16.851Z,18.70
2019-03-21T00:08:47.972Z,18.30
2019-03-21T00:11:58.910Z,17.33
2019-03-21T00:15:06.848Z,25.17
2019-03-21T00:17:44.931Z,27.57
2019-03-21T00:20:17.058Z,20.80
2019-03-21T00:22:47.889Z,21.17
2019-03-21T00:25:21.087Z,16.87
2019-03-21T00:27:51.771Z,20.00
2019-03-21T00:30:23.401Z,24.27
2019-03-21T00:32:54.583Z,19.47
2019-03-21T00:35:25.258Z,14.30
2019-03-21T00:37:56.074Z,18.43
2019-03-21T00:40:29.275Z,17.43
2019-03-21T00:43:01.883Z,22.07
2019-03-21T00:45:32.692Z,16.10
2019-03-21T00:48:04.563Z,19.33
2019-03-21T00:50:35.556Z,16.40
2019-03-21T00:53:06.247Z,24.00
2019-03-21T00:55:37.575Z,15.73
2019-03-21T00:58:08.535Z,25.20
2019-03-21T01:00:45.110Z,17.40
2019-03-21T01:03:16.243Z,17.67
2019-03-21T01:05:47.182Z,21.07
2019-03-21T01:08:17.889Z,22.50
2019-03-21T01:10:49.446Z,22.43
2019-03-21T01:13:20.272Z,21.80
2019-03-21T01:15:50.980Z,19.10
2019-03-21T01:18:21.666Z,15.47
2019-03-21T01:20:52.429Z,22.63
2019-03-21T01:23:23.156Z,21.23
2019-03-21T01:25:55.092Z,19.03
2019-03-21T01:28:25.787Z,16.67
2019-03-21T01:30:56.474Z,18.90
2019-03-21T01:33:27.191Z,16.67
2019-03-21T01:35:58.179Z,15.37
2019-03-21T01:38:28.940Z,15.17
2019-03-21T01:40:59.644Z,17.13
2019-03-21T01:43:30.371Z,21.87
2019-03-21T01:46:01.155Z,16.87
2019-03-21T01:48:31.832Z,21.07
2019-03-21T01:51:02.531Z,20.13
2019-03-21T01:53:33.215Z,22.30
2019-03-21T01:56:03.929Z,26.83
2019-03-21T01:58:34.587Z,25.90
2019-03-21T02:01:05.368Z,33.30
2019-03-21T02:03:36.102Z,29.00
2019-03-21T02:06:06.827Z,27.43
2019-03-21T02:08:37.610Z,33.03
2019-03-21T02:11:08.311Z,37.63
2019-03-21T02:13:38.978Z,36.07
2019-03-21T02:16:09.701Z,30.67
2019-03-21T02:18:40.380Z,30.37
2019-03-21T02:21:11.122Z,33.60
2019-03-21T02:23:41.876Z,30.90
2019-03-21T02:26:12.583Z,42.30
2019-03-21T02:28:43.332Z,34.63
2019-03-21T02:31:14.056Z,39.80
2019-03-21T02:33:44.771Z,25.43
2019-03-21T02:36:15.523Z,30.20
2019-03-21T02:38:47.402Z,30.37
2019-03-21T02:41:18.151Z,25.80
2019-03-21T02:43:48.838Z,28.73
2019-03-21T02:46:19.547Z,33.40
2019-03-21T02:48:50.534Z,29.20
2019-03-21T02:51:21.243Z,35.53
2019-03-21T02:53:51.923Z,33.17
2019-03-21T02:56:22.735Z,34.63
2019-03-21T02:58:55.315Z,31.20
2019-03-21T03:01:26.007Z,32.20
2019-03-21T03:03:56.995Z,41.73
2019-03-21T03:06:27.711Z,46.77
2019-03-21T03:08:58.432Z,30.43
2019-03-21T03:11:29.135Z,30.70
2019-03-21T03:13:59.867Z,36.20
2019-03-21T03:16:30.590Z,40.07
2019-03-21T03:19:01.275Z,35.93
2019-03-21T03:21:32.113Z,35.07
2019-03-21T03:24:02.793Z,46.73
2019-03-21T03:26:33.510Z,44.87
2019-03-21T03:29:04.216Z,40.37
2019-03-21T03:31:34.983Z,42.70
2019-03-21T03:34:05.669Z,34.87
2019-03-21T03:36:36.514Z,33.27
2019-03-21T03:39:10.971Z,41.43
2019-03-21T03:41:41.459Z,34.23
2019-03-21T03:44:12.167Z,36.47
2019-03-21T03:46:42.857Z,37.73
2019-03-21T03:49:13.532Z,33.03
2019-03-21T03:51:44.242Z,33.10
2019-03-21T03:54:14.908Z,45.40
2019-03-21T03:56:45.604Z,35.33
2019-03-21T03:59:16.467Z,38.93
2019-03-21T04:01:47.579Z,37.93
2019-03-21T04:04:18.260Z,35.30
2019-03-21T04:06:48.974Z,34.40
2019-03-21T04:09:19.668Z,38.23
2019-03-21T04:11:50.449Z,41.33
2019-03-21T04:14:21.155Z,36.20
2019-03-21T04:16:51.935Z,43.97
2019-03-21T04:19:22.611Z,42.60
2019-03-21T04:21:53.311Z,38.50
2019-03-21T04:24:24.016Z,37.07
2019-03-21T04:26:54.784Z,37.33
2019-03-21T04:29:25.502Z,36.97
2019-03-21T04:31:56.303Z,42.50
2019-03-21T04:34:26.987Z,42.80
2019-03-21T04:36:57.710Z,44.57
2019-03-21T04:39:28.467Z,36.93
2019-03-21T04:41:59.204Z,38.30
2019-03-21T04:44:29.923Z,37.63
2019-03-21T04:47:00.672Z,38.17
2019-03-21T04:49:31.347Z,30.13
2019-03-21T04:52:02.052Z,34.93
2019-03-21T04:54:32.735Z,30.50
2019-03-21T04:57:03.436Z,44.50
2019-03-21T04:59:34.110Z,34.60
2019-03-21T05:02:04.847Z,32.47
2019-03-21T05:04:35.512Z,30.20
2019-03-21T05:07:06.247Z,30.00
2019-03-21T05:09:37.013Z,36.13
2019-03-21T05:12:07.733Z,34.37
2019-03-21T05:14:38.499Z,30.83
2019-03-21T05:17:09.241Z,26.30
2019-03-21T05:19:39.989Z,33.63
2019-03-21T05:22:10.699Z,31.27
2019-03-21T05:24:41.473Z,32.67
2019-03-21T05:27:12.392Z,36.50
2019-03-21T05:29:43.104Z,28.03
2019-03-21T05:32:13.807Z,30.07
2019-03-21T05:34:44.494Z,26.33
2019-03-21T05:37:15.223Z,29.50
2019-03-21T05:39:45.992Z,24.90
2019-03-21T05:42:19.945Z,27.37
2019-03-21T05:44:50.640Z,23.77
2019-03-21T05:47:21.341Z,23.67
2019-03-21T05:49:52.047Z,29.43
2019-03-21T05:52:22.744Z,23.70
2019-03-21T05:54:53.445Z,24.33
2019-03-21T05:57:24.147Z,24.27
2019-03-21T05:59:54.974Z,23.10
2019-03-21T06:02:25.695Z,22.57
2019-03-21T06:04:56.404Z,22.30
2019-03-21T06:07:41.825Z,30.97
2019-03-21T06:10:14.067Z,24.13
2019-03-21T06:12:45.206Z,21.30
2019-03-21T06:15:19.927Z,19.23
2019-03-21T06:18:28.695Z,15.73
2019-03-21T06:21:10.551Z,17.67
2019-03-21T06:24:04.176Z,13.00
2019-03-21T06:27:20.601Z,19.73
2019-03-21T06:29:51.266Z,17.70
2019-03-21T06:32:22.071Z,12.23
2019-03-21T06:34:54.159Z,13.93
2019-03-21T06:37:25.079Z,15.80
2019-03-21T06:39:55.760Z,16.93
2019-03-21T06:42:26.463Z,15.20
2019-03-21T06:44:57.144Z,16.63
2019-03-21T06:47:27.827Z,20.30
2019-03-21T06:49:58.551Z,14.40
2019-03-21T06:52:29.289Z,10.30
2019-03-21T06:55:00.044Z,13.50
2019-03-21T06:57:31.811Z,12.40
2019-03-21T07:00:02.591Z,13.97
2019-03-21T07:02:33.390Z,11.27
2019-03-21T07:05:04.516Z,15.67
2019-03-21T07:07:35.198Z,17.13
2019-03-21T07:10:07.408Z,12.00
2019-03-21T07:12:38.119Z,20.63
2019-03-21T07:15:09.598Z,19.90
2019-03-21T07:17:40.295Z,13.20
2019-03-21T07:20:12.112Z,16.67
2019-03-21T07:22:42.805Z,12.53
2019-03-21T07:25:13.483Z,17.03
2019-03-21T07:27:44.187Z,19.67
2019-03-21T07:30:15.099Z,13.97
2019-03-21T07:32:46.845Z,12.40
2019-03-21T07:35:17.670Z,14.67
2019-03-21T07:37:48.356Z,17.10
2019-03-21T07:40:19.039Z,15.23
2019-03-21T07:42:49.772Z,18.00
2019-03-21T07:45:20.459Z,12.30
2019-03-21T07:47:51.184Z,16.30
2019-03-21T07:50:21.863Z,13.50
2019-03-21T07:52:52.537Z,15.37
2019-03-21T07:55:23.265Z,15.13
2019-03-21T07:57:53.970Z,15.20
2019-03-21T08:00:24.691Z,13.43
2019-03-21T08:02:55.475Z,19.43
2019-03-21T08:05:26.167Z,12.10
2019-03-21T08:07:56.960Z,12.47
2019-03-21T08:10:27.637Z,17.10
2019-03-21T08:12:58.359Z,13.10
2019-03-21T08:15:29.036Z,12.83
2019-03-21T08:17:59.807Z,16.27
2019-03-21T08:20:30.486Z,16.40
2019-03-21T08:23:01.191Z,12.30
2019-03-21T08:25:31.882Z,11.67
2019-03-21T08:28:02.563Z,13.60
2019-03-21T08:30:35.084Z,16.00
2019-03-21T08:33:06.151Z,16.27
2019-03-21T08:35:36.839Z,14.70
2019-03-21T08:38:07.539Z,14.70
2019-03-21T08:40:38.259Z,17.10
2019-03-21T08:43:08.969Z,15.50
2019-03-21T08:45:39.663Z,15.23
2019-03-21T08:48:10.343Z,15.97
2019-03-21T08:50:41.011Z,18.47
2019-03-21T08:53:11.700Z,19.97
2019-03-21T08:55:42.393Z,15.20
2019-03-21T08:58:13.091Z,20.67
2019-03-21T09:00:43.817Z,18.00
2019-03-21T09:03:14.515Z,14.00
2019-03-21T09:05:45.568Z,22.90
2019-03-21T09:08:16.281Z,19.33
2019-03-21T09:10:46.964Z,14.80
2019-03-21T09:13:17.666Z,19.73
2019-03-21T09:15:48.380Z,14.73
2019-03-21T09:18:19.084Z,19.10
2019-03-21T09:20:49.783Z,12.73
2019-03-21T09:23:20.512Z,19.37
2019-03-21T09:25:51.479Z,14.47
2019-03-21T09:28:22.227Z,15.17
2019-03-21T09:30:52.913Z,17.87
2019-03-21T09:33:23.679Z,14.97
2019-03-21T09:35:54.393Z,19.10
2019-03-21T09:38:25.112Z,16.93
2019-03-21T09:40:55.968Z,17.00
2019-03-21T09:43:26.672Z,17.53
2019-03-21T09:45:57.378Z,15.93
2019-03-21T09:48:28.104Z,15.07
2019-03-21T09:50:58.791Z,14.90
2019-03-21T09:53:29.501Z,15.43
2019-03-21T09:56:01.667Z,16.07
2019-03-21T09:58:32.460Z,13.63
2019-03-21T10:01:03.159Z,15.00
2019-03-21T10:03:33.867Z,18.20
2019-03-21T10:06:04.555Z,16.80
2019-03-21T10:08:35.268Z,15.30
2019-03-21T10:11:05.957Z,16.90
2019-03-21T10:13:36.679Z,17.10
2019-03-21T10:16:07.387Z,18.37
2019-03-21T10:18:38.109Z,15.60
2019-03-21T10:21:08.773Z,18.43
2019-03-21T10:23:39.496Z,20.73
2019-03-21T10:26:10.200Z,12.30
2019-03-21T10:28:40.965Z,16.33
2019-03-21T10:31:11.651Z,17.30
2019-03-21T10:33:42.339Z,16.50
2019-03-21T10:36:16.770Z,15.23
2019-03-21T10:38:47.445Z,15.97
2019-03-21T10:41:18.122Z,14.60
2019-03-21T10:43:48.841Z,14.47
2019-03-21T10:46:20.559Z,14.00
2019-03-21T10:48:51.245Z,15.40
2019-03-21T10:51:22.990Z,12.43
2019-03-21T10:53:53.684Z,16.20
2019-03-21T10:56:24.611Z,17.37
2019-03-21T10:58:55.331Z,22.03
2019-03-21T11:01:25.987Z,16.63
2019-03-21T11:03:56.763Z,13.83
2019-03-21T11:06:27.450Z,16.03
2019-03-21T11:08:58.144Z,22.00
2019-03-21T11:11:28.816Z,14.80
2019-03-21T11:13:59.594Z,15.50
2019-03-21T11:16:31.505Z,12.80
2019-03-21T11:19:02.403Z,12.77
2019-03-21T11:21:33.116Z,16.90
2019-03-21T11:24:03.803Z,12.20
2019-03-21T11:26:34.559Z,13.50
2019-03-21T11:29:05.247Z,13.50
2019-03-21T11:31:35.933Z,9.73
2019-03-21T11:34:07.686Z,14.37
2019-03-21T11:36:38.937Z,12.07
2019-03-21T11:39:09.951Z,9.83
2019-03-21T11:41:40.623Z,11.60
2019-03-21T11:44:13.191Z,10.97
2019-03-21T11:46:43.872Z,11.20
2019-03-21T11:49:14.572Z,11.00
2019-03-21T11:51:45.261Z,9.20
2019-03-21T11:54:15.949Z,8.00
2019-03-21T11:56:48.744Z,7.53
2019-03-21T11:59:19.559Z,10.43
2019-03-21T12:01:50.228Z,6.80
2019-03-21T12:04:20.945Z,13.63
2019-03-21T12:06:51.621Z,10.17
2019-03-21T12:09:22.310Z,8.30
2019-03-21T12:11:53.022Z,6.03
2019-03-21T12:14:23.770Z,11.10
2019-03-21T12:16:54.437Z,7.60
2019-03-21T12:19:25.143Z,8.67
2019-03-21T12:21:55.885Z,12.43
2019-03-21T12:24:26.579Z,8.07
2019-03-21T12:26:57.257Z,10.23
2019-03-21T12:29:29.031Z,12.10
2019-03-21T12:31:59.759Z,11.17
2019-03-21T12:34:30.464Z,8.83
2019-03-21T12:37:01.188Z,11.50
2019-03-21T12:39:31.856Z,10.97
2019-03-21T12:42:02.663Z,10.13
2019-03-21T12:44:33.339Z,9.90
2019-03-21T12:47:04.077Z,13.37
2019-03-21T12:49:34.805Z,9.33
2019-03-21T12:52:05.551Z,13.07
2019-03-21T12:54:36.222Z,7.90
2019-03-21T12:57:06.932Z,14.17
2019-03-21T12:59:37.639Z,10.97
2019-03-21T13:02:08.346Z,11.07
2019-03-21T13:04:39.000Z,12.40
2019-03-21T13:07:09.708Z,13.80
2019-03-21T13:09:40.406Z,10.93
2019-03-21T13:12:11.116Z,11.60
2019-03-21T13:14:41.791Z,14.10
2019-03-21T13:17:12.532Z,15.90
2019-03-21T13:19:43.207Z,11.77
2019-03-21T13:22:14.015Z,10.37
2019-03-21T13:24:44.671Z,10.00
2019-03-21T13:27:15.445Z,10.40
2019-03-21T13:29:46.140Z,13.63
2019-03-21T13:32:16.869Z,14.17
2019-03-21T13:34:47.581Z,17.90
2019-03-21T13:37:18.319Z,19.53
2019-03-21T13:39:48.994Z,12.97
2019-03-21T13:42:19.726Z,12.27
2019-03-21T13:44:50.415Z,14.70
2019-03-21T13:47:21.132Z,12.30
2019-03-21T13:49:52.111Z,13.50
2019-03-21T13:52:22.812Z,17.13
2019-03-21T13:54:53.516Z,17.00
2019-03-21T13:57:25.191Z,14.57
2019-03-21T13:59:55.884Z,16.70
2019-03-21T14:02:26.575Z,14.70
2019-03-21T14:04:58.329Z,19.20
2019-03-21T14:07:29.051Z,16.97
2019-03-21T14:09:59.699Z,15.00
2019-03-21T14:12:30.508Z,20.10
2019-03-21T14:15:01.206Z,17.87
2019-03-21T14:17:34.777Z,17.97
2019-03-21T14:20:06.248Z,21.17
2019-03-21T14:22:36.978Z,17.37
2019-03-21T14:25:09.224Z,15.30
2019-03-21T14:27:40.326Z,14.53
2019-03-21T14:30:12.607Z,16.73
2019-03-21T14:32:43.355Z,19.10
2019-03-21T14:35:15.515Z,16.83
2019-03-21T14:37:46.219Z,20.43
2019-03-21T14:40:17.119Z,16.83
2019-03-21T14:42:47.909Z,16.83
2019-03-21T14:45:18.852Z,19.77
2019-03-21T14:47:49.546Z,18.80
2019-03-21T14:50:20.216Z,17.50
2019-03-21T14:52:50.957Z,18.13
2019-03-21T14:55:21.633Z,20.23
2019-03-21T14:57:52.376Z,19.50
2019-03-21T15:00:23.070Z,19.70
2019-03-21T15:02:53.774Z,20.23
2019-03-21T15:05:24.466Z,26.70
2019-03-21T15:07:55.177Z,21.33
2019-03-21T15:10:25.900Z,17.83
2019-03-21T15:12:56.583Z,22.70
2019-03-21T15:15:27.386Z,20.07
2019-03-21T15:17:58.790Z,22.77
2019-03-21T15:20:29.656Z,22.63
2019-03-21T15:23:00.387Z,23.37
2019-03-21T15:25:31.121Z,18.77
2019-03-21T15:28:03.098Z,19.20
2019-03-21T15:30:34.904Z,20.60
2019-03-21T15:33:05.656Z,17.67
2019-03-21T15:35:36.359Z,21.10
2019-03-21T15:38:07.080Z,18.33
2019-03-21T15:40:37.794Z,18.23
2019-03-21T15:43:08.607Z,20.20
2019-03-21T15:45:39.288Z,19.37
2019-03-21T15:48:10.076Z,22.53
2019-03-21T15:50:40.759Z,20.80
2019-03-21T15:53:11.475Z,18.93
2019-03-21T15:55:42.144Z,19.43
2019-03-21T15:58:12.923Z,21.13
2019-03-21T16:00:43.948Z,18.33
2019-03-21T16:03:14.730Z,21.23
2019-03-21T16:05:45.444Z,21.80
2019-03-21T16:08:16.171Z,18.77
2019-03-21T16:10:46.979Z,16.67
2019-03-21T16:13:17.704Z,17.07
2019-03-21T16:15:48.460Z,24.10
2019-03-21T16:18:19.191Z,20.20
2019-03-21T16:20:49.884Z,19.20
2019-03-21T16:23:20.655Z,17.30
2019-03-21T16:25:51.371Z,20.20
2019-03-21T16:28:22.140Z,20.80
2019-03-21T16:30:52.975Z,19.10
2019-03-21T16:33:23.702Z,19.20
2019-03-21T16:35:54.380Z,18.37
2019-03-21T16:38:25.128Z,20.60
2019-03-21T16:40:55.929Z,20.50
2019-03-21T16:43:27.810Z,18.20
2019-03-21T16:45:58.515Z,22.80
2019-03-21T16:48:29.227Z,17.50
2019-03-21T16:51:03.014Z,18.50
2019-03-21T16:53:33.431Z,24.00
2019-03-21T16:56:04.131Z,19.40
2019-03-21T16:58:34.935Z,23.53
2019-03-21T17:01:05.706Z,24.00
2019-03-21T17:03:36.680Z,25.43
2019-03-21T17:06:07.414Z,25.67
2019-03-21T17:08:38.245Z,22.80
2019-03-21T17:11:08.981Z,27.33
2019-03-21T17:13:39.971Z,24.50
2019-03-21T17:16:10.644Z,22.57
2019-03-21T17:18:41.406Z,24.97
2019-03-21T17:21:12.226Z,22.43
2019-03-21T17:23:43.018Z,24.63
2019-03-21T17:26:15.889Z,26.90
2019-03-21T17:28:46.184Z,27.37
2019-03-21T17:31:16.894Z,29.43
2019-03-21T17:33:47.627Z,25.10
2019-03-21T17:36:20.642Z,26.80
2019-03-21T17:38:50.870Z,34.93
2019-03-21T17:41:21.740Z,25.80
2019-03-21T17:43:52.448Z,31.87
2019-03-21T17:46:23.136Z,27.07
2019-03-21T17:48:53.863Z,33.57
2019-03-21T17:51:25.086Z,38.80
2019-03-21T17:53:55.820Z,35.57
2019-03-21T17:56:26.526Z,31.33
2019-03-21T17:58:57.369Z,30.97
2019-03-21T18:01:28.076Z,32.33
2019-03-21T18:04:00.459Z,29.13
2019-03-21T18:06:31.326Z,35.20
2019-03-21T18:09:02.028Z,30.40
2019-03-21T18:11:34.359Z,34.97
2019-03-21T18:14:05.170Z,33.53
2019-03-21T18:16:36.876Z,29.13
2019-03-21T18:19:07.580Z,34.27
2019-03-21T18:21:38.343Z,31.30
2019-03-21T18:24:09.069Z,34.53
2019-03-21T18:26:39.825Z,30.67
2019-03-21T18:29:10.524Z,36.00
2019-03-21T18:31:41.310Z,34.30
2019-03-21T18:34:12.030Z,29.33
2019-03-21T18:36:42.871Z,31.23
2019-03-21T18:39:14.395Z,30.83
2019-03-21T18:41:46.779Z,33.60
2019-03-21T18:44:17.604Z,34.73
2019-03-21T18:46:48.552Z,34.23
2019-03-21T18:49:19.345Z,36.87
2019-03-21T18:51:50.156Z,34.00
2019-03-21T18:54:20.911Z,35.17
2019-03-21T18:56:51.752Z,32.57
2019-03-21T18:59:22.499Z,33.90
2019-03-21T19:01:58.353Z,33.37
2019-03-21T19:04:26.747Z,34.63
2019-03-21T19:06:58.834Z,39.70
2019-03-21T19:09:29.712Z,38.43
2019-03-21T19:12:00.575Z,46.07
2019-03-21T19:14:32.398Z,44.80
2019-03-21T19:17:04.952Z,40.97
2019-03-21T19:19:35.644Z,52.63
2019-03-21T19:22:06.371Z,52.87
2019-03-21T19:24:37.176Z,71.30
2019-03-21T19:27:07.932Z,71.23
2019-03-21T19:29:38.644Z,59.40
2019-03-21T19:32:09.400Z,51.00
2019-03-21T19:34:40.119Z,48.90
2019-03-21T19:37:10.865Z,52.80
2019-03-21T19:39:44.422Z,55.37
2019-03-21T19:42:16.185Z,69.50
2019-03-21T19:44:46.924Z,76.07
2019-03-21T19:47:23.852Z,77.03
2019-03-21T19:49:50.168Z,79.07
2019-03-21T19:52:20.965Z,68.80
2019-03-21T19:54:54.070Z,74.13
2019-03-21T19:57:24.799Z,65.87
2019-03-21T19:59:55.551Z,68.60
2019-03-21T20:02:26.290Z,66.60
2019-03-21T20:04:57.006Z,69.10
2019-03-21T20:07:27.768Z,75.03
2019-03-21T20:09:58.619Z,72.70
2019-03-21T20:12:29.512Z,69.27
2019-03-21T20:15:00.375Z,84.00
2019-03-21T20:17:31.232Z,88.30
2019-03-21T20:20:01.957Z,78.57
2019-03-21T20:22:32.771Z,84.00
2019-03-21T20:25:03.565Z,76.80
2019-03-21T20:27:34.516Z,76.77
2019-03-21T20:30:07.241Z,92.53
2019-03-21T20:32:38.404Z,94.47
2019-03-21T20:35:09.985Z,84.17
2019-03-21T20:37:40.712Z,75.73
2019-03-21T20:40:12.091Z,94.10
2019-03-21T20:42:42.811Z,85.33
2019-03-21T20:45:14.415Z,89.13
2019-03-21T20:47:45.150Z,89.30
2019-03-21T20:50:17.882Z,78.97
2019-03-21T20:52:49.556Z,90.60
2019-03-21T20:55:20.285Z,77.77
2019-03-21T20:57:52.219Z,71.40
2019-03-21T21:00:23.341Z,98.27
2019-03-21T21:02:54.741Z,91.77
2019-03-21T21:05:25.436Z,92.10
2019-03-21T21:07:56.148Z,91.27
2019-03-21T21:10:26.996Z,87.80
2019-03-21T21:12:57.735Z,90.37
2019-03-21T21:15:28.582Z,88.10
2019-03-21T21:17:59.330Z,83.90
2019-03-21T21:20:30.093Z,87.57
2019-03-21T21:23:00.834Z,93.97
2019-03-21T21:25:31.586Z,80.90
2019-03-21T21:28:02.380Z,75.87
2019-03-21T21:30:34.284Z,89.57
2019-03-21T21:33:05.001Z,92.70
2019-03-21T21:35:35.707Z,89.50
2019-03-21T21:38:06.475Z,104.77
2019-03-21T21:40:37.190Z,94.37
2019-03-21T21:43:09.395Z,109.50
2019-03-21T21:45:40.106Z,103.23
2019-03-21T21:48:10.807Z,102.30
2019-03-21T21:50:41.622Z,106.97
2019-03-21T21:53:12.403Z,115.13
2019-03-21T21:55:44.230Z,118.40
2019-03-21T21:58:14.935Z,118.77
2019-03-21T22:00:45.647Z,125.10
2019-03-21T22:03:16.381Z,130.43
2019-03-21T22:05:47.174Z,130.17
2019-03-21T22:08:17.893Z,129.70
2019-03-21T22:10:49.806Z,126.60
2019-03-21T22:13:20.554Z,116.90
2019-03-21T22:15:51.252Z,116.80
2019-03-21T22:18:21.986Z,104.80
2019-03-21T22:20:52.708Z,113.60
2019-03-21T22:23:23.442Z,127.50
2019-03-21T22:25:54.132Z,121.67
2019-03-21T22:28:24.848Z,125.30
2019-03-21T22:30:55.548Z,124.70
2019-03-21T22:33:26.265Z,125.10
2019-03-21T22:35:56.968Z,136.40
2019-03-21T22:38:27.679Z,143.90
2019-03-21T22:40:58.371Z,139.87
2019-03-21T22:43:30.615Z,155.00
2019-03-21T22:46:02.399Z,141.80
2019-03-21T22:48:37.408Z,148.90
2019-03-21T22:51:08.150Z,154.80
2019-03-21T22:53:38.841Z,136.50
2019-03-21T22:56:09.548Z,152.67
2019-03-21T22:58:40.336Z,155.10
2019-03-21T23:01:11.016Z,137.90
2019-03-21T23:03:41.716Z,155.33
2019-03-21T23:06:12.412Z,155.33
2019-03-21T23:08:43.131Z,160.10
2019-03-21T23:11:13.807Z,160.23
2019-03-21T23:13:46.119Z,159.30
2019-03-21T23:16:16.795Z,140.30
2019-03-21T23:18:47.709Z,158.47
2019-03-21T23:21:18.381Z,151.87
2019-03-21T23:23:49.088Z,164.13
2019-03-21T23:26:19.828Z,153.47
2019-03-21T23:28:50.651Z,152.87
2019-03-21T23:31:21.356Z,147.27
2019-03-21T23:33:52.047Z,153.70
2019-03-21T23:36:22.803Z,147.43
2019-03-21T23:38:53.503Z,152.00
2019-03-21T23:41:24.260Z,163.47
2019-03-21T23:43:54.963Z,154.27
2019-03-21T23:46:25.642Z,161.47
2019-03-21T23:48:56.349Z,150.13
2019-03-21T23:51:27.035Z,154.20
2019-03-21T23:53:57.732Z,160.87
2019-03-21T23:56:28.403Z,130.73
2019-03-21T23:58:59.088Z,170.17
